Airfield :
LOGIN :

Register | Disclaimer

   EN    FR    IT 

 










Legend :    VFR   Marginal VFR   IFR   Intensive IFR   Very Intensive IFR
Visi :
Ceiling :
>= 8 km
>= 3000ft
5 to 8 km
1000 to 3000 ft
1500m to 5 km
500 to 1000 ft
800 to 1500m
200 to 500 ft
< 800m
< 200 ft
Symbols :   Thunderstorms  Fog  Heavy snow  Heavy precipitations  Wind > 20 kt
SIGMETs :     Misc.  Thunderstorms  Icing  Turbulence  Mountain Waves  Volcanic Ashes







- Airport Elevation : 2265 ft
- IATA code : CZL


DABC - Mohamed Boudiaf Int. Constantine

CURRENT METAR :
  • 200730Z VRB01KT 9999 FEW030 SCT230 25/14 Q1021

EXPIRED METARs :
  • 200700Z 00000KT 9999 FEW030 SCT230 24/14 Q1021
  • 200630Z 00000KT 9999 FEW033 23/14 Q1021
  • 200600Z 00000KT 9999 FEW033 21/14 Q1021
  • 200530Z 00000KT 9999 FEW033 20/14 Q1020
  • 200500Z 00000KT 9999 FEW033 20/13 Q1020

TAF TAF DABC
Valid from the 20 at 06:00 until the 21 at 06:00 UTC


200500Z 2006/2106 VRB02KT 9999 FEW033
BECMG 2010/2012 05014KT
PROB30
TEMPO 2012/2018 FEW026TCU
BECMG 2020/2022 VRB02KT
No reported NOTAMs for that airfield.



MET'MAP, your aeronautical weather chart ! - Copyright ORBIFLY December 2007 - Disclaimer

ORBIFLY MET'MAP TEAM :

Programming & Development : Alexandra Zaïnal
Concept & Development : Baudouin d'Aumeries
Co-Development & Prog : Marc-Olivier Méhu
Technical & hardware support : Manuel Goepfert

Contact : metmap@orbifly.com




SOURCES & CREDITS :

   NOAA